sensor_id;sensor_type;location;lat;lon;timestamp;P1;durP1;ratioP1;P2;durP2;ratioP2
39370;SDS011;25099;51.946;4.838;2022-08-19T00:01:15;9.10;;;8.30;;
39370;SDS011;25099;51.946;4.838;2022-08-19T00:03:40;9.60;;;8.70;;
39370;SDS011;25099;51.946;4.838;2022-08-19T00:06:06;10.90;;;8.20;;
39370;SDS011;25099;51.946;4.838;2022-08-19T00:08:31;9.38;;;8.38;;
39370;SDS011;25099;51.946;4.838;2022-08-19T00:10:58;9.68;;;8.52;;
39370;SDS011;25099;51.946;4.838;2022-08-19T00:13:24;9.50;;;8.30;;
39370;SDS011;25099;51.946;4.838;2022-08-19T00:15:49;9.75;;;8.95;;
39370;SDS011;25099;51.946;4.838;2022-08-19T00:18:15;8.88;;;8.25;;
39370;SDS011;25099;51.946;4.838;2022-08-19T00:20:40;9.63;;;8.65;;
39370;SDS011;25099;51.946;4.838;2022-08-19T00:23:06;9.75;;;8.88;;
39370;SDS011;25099;51.946;4.838;2022-08-19T00:25:32;10.27;;;9.38;;
39370;SDS011;25099;51.946;4.838;2022-08-19T00:27:58;14.50;;;10.75;;
39370;SDS011;25099;51.946;4.838;2022-08-19T00:30:24;13.48;;;10.23;;
39370;SDS011;25099;51.946;4.838;2022-08-19T00:32:52;12.30;;;9.82;;
39370;SDS011;25099;51.946;4.838;2022-08-19T00:35:19;11.35;;;10.27;;
39370;SDS011;25099;51.946;4.838;2022-08-19T00:37:46;12.93;;;11.68;;
39370;SDS011;25099;51.946;4.838;2022-08-19T00:40:13;11.95;;;10.77;;
39370;SDS011;25099;51.946;4.838;2022-08-19T00:42:40;11.90;;;10.38;;
39370;SDS011;25099;51.946;4.838;2022-08-19T00:45:14;11.70;;;10.50;;
39370;SDS011;25099;51.946;4.838;2022-08-19T00:47:43;13.02;;;11.45;;
39370;SDS011;25099;51.946;4.838;2022-08-19T00:50:10;12.40;;;11.30;;
39370;SDS011;25099;51.946;4.838;2022-08-19T00:52:39;12.63;;;11.57;;
39370;SDS011;25099;51.946;4.838;2022-08-19T00:55:10;14.98;;;11.55;;
39370;SDS011;25099;51.946;4.838;2022-08-19T00:57:40;12.32;;;11.10;;
39370;SDS011;25099;51.946;4.838;2022-08-19T01:00:12;12.18;;;10.95;;
39370;SDS011;25099;51.946;4.838;2022-08-19T01:02:40;13.50;;;12.18;;
39370;SDS011;25099;51.946;4.838;2022-08-19T01:05:08;13.02;;;11.93;;
39370;SDS011;25099;51.946;4.838;2022-08-19T01:07:37;14.65;;;12.50;;
39370;SDS011;25099;51.946;4.838;2022-08-19T01:10:06;17.23;;;11.63;;
39370;SDS011;25099;51.946;4.838;2022-08-19T01:12:34;16.92;;;14.40;;
39370;SDS011;25099;51.946;4.838;2022-08-19T01:14:59;15.95;;;12.45;;
39370;SDS011;25099;51.946;4.838;2022-08-19T01:17:25;16.10;;;11.98;;
39370;SDS011;25099;51.946;4.838;2022-08-19T01:19:52;17.63;;;15.75;;
39370;SDS011;25099;51.946;4.838;2022-08-19T01:24:49;16.75;;;15.13;;
39370;SDS011;25099;51.946;4.838;2022-08-19T01:27:16;19.10;;;15.57;;
39370;SDS011;25099;51.946;4.838;2022-08-19T01:29:42;19.13;;;16.10;;
39370;SDS011;25099;51.946;4.838;2022-08-19T01:32:11;19.30;;;16.77;;
39370;SDS011;25099;51.946;4.838;2022-08-19T01:34:38;17.77;;;15.57;;
39370;SDS011;25099;51.946;4.838;2022-08-19T01:37:10;21.65;;;16.35;;
39370;SDS011;25099;51.946;4.838;2022-08-19T01:39:37;22.58;;;16.63;;
39370;SDS011;25099;51.946;4.838;2022-08-19T01:42:04;21.10;;;16.23;;
39370;SDS011;25099;51.946;4.838;2022-08-19T01:44:31;21.90;;;17.15;;
39370;SDS011;25099;51.946;4.838;2022-08-19T01:46:56;18.90;;;16.95;;
39370;SDS011;25099;51.946;4.838;2022-08-19T01:49:23;21.13;;;17.88;;
39370;SDS011;25099;51.946;4.838;2022-08-19T01:51:51;19.10;;;15.77;;
39370;SDS011;25099;51.946;4.838;2022-08-19T01:54:17;18.05;;;15.57;;
39370;SDS011;25099;51.946;4.838;2022-08-19T01:56:45;18.05;;;16.13;;
39370;SDS011;25099;51.946;4.838;2022-08-19T01:59:14;25.70;;;16.90;;
39370;SDS011;25099;51.946;4.838;2022-08-19T02:01:43;18.90;;;16.25;;
39370;SDS011;25099;51.946;4.838;2022-08-19T02:04:09;22.02;;;16.00;;
39370;SDS011;25099;51.946;4.838;2022-08-19T02:06:35;26.48;;;16.83;;
39370;SDS011;25099;51.946;4.838;2022-08-19T02:09:01;22.25;;;17.00;;
39370;SDS011;25099;51.946;4.838;2022-08-19T02:11:29;16.67;;;14.80;;
39370;SDS011;25099;51.946;4.838;2022-08-19T02:13:58;19.67;;;16.40;;
39370;SDS011;25099;51.946;4.838;2022-08-19T02:16:26;21.55;;;17.63;;
39370;SDS011;25099;51.946;4.838;2022-08-19T02:18:52;18.00;;;16.13;;
39370;SDS011;25099;51.946;4.838;2022-08-19T02:21:18;25.67;;;17.52;;
39370;SDS011;25099;51.946;4.838;2022-08-19T02:23:45;22.02;;;17.80;;
39370;SDS011;25099;51.946;4.838;2022-08-19T02:26:11;22.48;;;18.98;;
39370;SDS011;25099;51.946;4.838;2022-08-19T02:28:38;26.10;;;19.90;;
39370;SDS011;25099;51.946;4.838;2022-08-19T02:31:08;25.30;;;20.33;;
39370;SDS011;25099;51.946;4.838;2022-08-19T02:33:35;27.02;;;20.90;;
39370;SDS011;25099;51.946;4.838;2022-08-19T02:36:03;24.83;;;19.10;;
39370;SDS011;25099;51.946;4.838;2022-08-19T02:38:29;25.65;;;19.67;;
39370;SDS011;25099;51.946;4.838;2022-08-19T02:40:57;22.45;;;19.45;;
39370;SDS011;25099;51.946;4.838;2022-08-19T02:43:26;23.08;;;20.13;;
39370;SDS011;25099;51.946;4.838;2022-08-19T02:45:53;28.83;;;20.45;;
39370;SDS011;25099;51.946;4.838;2022-08-19T02:48:19;26.90;;;21.67;;
39370;SDS011;25099;51.946;4.838;2022-08-19T02:50:46;26.08;;;22.45;;
39370;SDS011;25099;51.946;4.838;2022-08-19T02:53:12;27.75;;;21.23;;
39370;SDS011;25099;51.946;4.838;2022-08-19T02:55:45;33.00;;;23.92;;
39370;SDS011;25099;51.946;4.838;2022-08-19T02:58:12;28.20;;;22.30;;
39370;SDS011;25099;51.946;4.838;2022-08-19T03:00:49;28.75;;;23.23;;
39370;SDS011;25099;51.946;4.838;2022-08-19T03:03:17;33.40;;;24.52;;
39370;SDS011;25099;51.946;4.838;2022-08-19T03:05:43;44.92;;;28.63;;
39370;SDS011;25099;51.946;4.838;2022-08-19T03:08:12;39.20;;;27.75;;
39370;SDS011;25099;51.946;4.838;2022-08-19T03:10:40;42.63;;;28.60;;
39370;SDS011;25099;51.946;4.838;2022-08-19T03:13:08;43.33;;;30.08;;
39370;SDS011;25099;51.946;4.838;2022-08-19T03:15:38;39.78;;;28.70;;
39370;SDS011;25099;51.946;4.838;2022-08-19T03:18:04;36.20;;;26.63;;
39370;SDS011;25099;51.946;4.838;2022-08-19T03:20:30;44.45;;;28.63;;
39370;SDS011;25099;51.946;4.838;2022-08-19T03:22:56;40.75;;;27.50;;
39370;SDS011;25099;51.946;4.838;2022-08-19T03:25:22;40.83;;;28.80;;
39370;SDS011;25099;51.946;4.838;2022-08-19T03:27:49;44.50;;;28.27;;
39370;SDS011;25099;51.946;4.838;2022-08-19T03:30:14;43.05;;;28.67;;
39370;SDS011;25099;51.946;4.838;2022-08-19T03:32:40;39.33;;;26.50;;
39370;SDS011;25099;51.946;4.838;2022-08-19T03:35:05;47.33;;;28.13;;
39370;SDS011;25099;51.946;4.838;2022-08-19T03:37:31;42.95;;;27.58;;
39370;SDS011;25099;51.946;4.838;2022-08-19T03:39:57;40.40;;;27.25;;
39370;SDS011;25099;51.946;4.838;2022-08-19T03:42:23;39.50;;;26.58;;
39370;SDS011;25099;51.946;4.838;2022-08-19T03:44:51;43.65;;;27.55;;
39370;SDS011;25099;51.946;4.838;2022-08-19T03:47:17;42.65;;;26.25;;
39370;SDS011;25099;51.946;4.838;2022-08-19T03:49:43;37.25;;;25.38;;
39370;SDS011;25099;51.946;4.838;2022-08-19T03:52:09;40.92;;;27.13;;
39370;SDS011;25099;51.946;4.838;2022-08-19T03:54:35;44.65;;;29.35;;
39370;SDS011;25099;51.946;4.838;2022-08-19T03:57:03;39.55;;;28.15;;
39370;SDS011;25099;51.946;4.838;2022-08-19T03:59:30;42.45;;;28.70;;
39370;SDS011;25099;51.946;4.838;2022-08-19T04:01:58;41.92;;;28.75;;
39370;SDS011;25099;51.946;4.838;2022-08-19T04:04:25;42.55;;;28.63;;
39370;SDS011;25099;51.946;4.838;2022-08-19T04:06:52;41.92;;;28.35;;
39370;SDS011;25099;51.946;4.838;2022-08-19T04:09:18;39.83;;;27.25;;
39370;SDS011;25099;51.946;4.838;2022-08-19T04:11:46;39.50;;;27.77;;
39370;SDS011;25099;51.946;4.838;2022-08-19T04:14:15;38.58;;;26.70;;
39370;SDS011;25099;51.946;4.838;2022-08-19T04:16:43;45.20;;;26.83;;
39370;SDS011;25099;51.946;4.838;2022-08-19T04:19:09;43.65;;;27.08;;
39370;SDS011;25099;51.946;4.838;2022-08-19T04:21:35;43.30;;;27.65;;
39370;SDS011;25099;51.946;4.838;2022-08-19T04:24:01;40.28;;;27.25;;
39370;SDS011;25099;51.946;4.838;2022-08-19T04:26:28;45.33;;;28.90;;
39370;SDS011;25099;51.946;4.838;2022-08-19T04:28:59;41.60;;;27.45;;
39370;SDS011;25099;51.946;4.838;2022-08-19T04:31:36;48.58;;;30.13;;
39370;SDS011;25099;51.946;4.838;2022-08-19T04:34:03;54.33;;;31.95;;
39370;SDS011;25099;51.946;4.838;2022-08-19T04:36:31;52.75;;;32.35;;
39370;SDS011;25099;51.946;4.838;2022-08-19T04:39:00;63.47;;;36.85;;
39370;SDS011;25099;51.946;4.838;2022-08-19T04:41:28;71.88;;;39.80;;
39370;SDS011;25099;51.946;4.838;2022-08-19T04:44:12;68.75;;;37.88;;
39370;SDS011;25099;51.946;4.838;2022-08-19T04:46:39;66.28;;;38.28;;
39370;SDS011;25099;51.946;4.838;2022-08-19T04:49:05;72.80;;;41.25;;
39370;SDS011;25099;51.946;4.838;2022-08-19T04:51:32;73.55;;;41.03;;
39370;SDS011;25099;51.946;4.838;2022-08-19T04:53:58;79.15;;;41.15;;
39370;SDS011;25099;51.946;4.838;2022-08-19T04:56:26;73.05;;;41.22;;
39370;SDS011;25099;51.946;4.838;2022-08-19T04:58:53;71.35;;;38.92;;
39370;SDS011;25099;51.946;4.838;2022-08-19T05:01:21;71.75;;;39.97;;
39370;SDS011;25099;51.946;4.838;2022-08-19T05:03:51;69.93;;;40.17;;
39370;SDS011;25099;51.946;4.838;2022-08-19T05:06:18;75.22;;;39.15;;
39370;SDS011;25099;51.946;4.838;2022-08-19T05:08:46;71.13;;;39.25;;
39370;SDS011;25099;51.946;4.838;2022-08-19T05:13:40;70.60;;;37.42;;
39370;SDS011;25099;51.946;4.838;2022-08-19T05:16:07;67.93;;;38.17;;
39370;SDS011;25099;51.946;4.838;2022-08-19T05:18:33;68.22;;;36.35;;
39370;SDS011;25099;51.946;4.838;2022-08-19T05:21:19;67.47;;;36.97;;
39370;SDS011;25099;51.946;4.838;2022-08-19T05:24:04;71.95;;;36.40;;
39370;SDS011;25099;51.946;4.838;2022-08-19T05:26:34;65.45;;;33.60;;
39370;SDS011;25099;51.946;4.838;2022-08-19T05:29:03;57.78;;;31.77;;
39370;SDS011;25099;51.946;4.838;2022-08-19T05:31:31;60.22;;;29.92;;
39370;SDS011;25099;51.946;4.838;2022-08-19T05:33:57;54.85;;;29.17;;
39370;SDS011;25099;51.946;4.838;2022-08-19T05:36:24;57.70;;;28.88;;
39370;SDS011;25099;51.946;4.838;2022-08-19T05:38:50;57.30;;;29.25;;
39370;SDS011;25099;51.946;4.838;2022-08-19T05:41:18;63.40;;;30.05;;
39370;SDS011;25099;51.946;4.838;2022-08-19T05:43:44;62.60;;;29.67;;
39370;SDS011;25099;51.946;4.838;2022-08-19T05:46:15;58.50;;;28.55;;
39370;SDS011;25099;51.946;4.838;2022-08-19T05:48:43;57.25;;;28.92;;
39370;SDS011;25099;51.946;4.838;2022-08-19T05:51:08;59.22;;;26.60;;
39370;SDS011;25099;51.946;4.838;2022-08-19T05:53:35;56.83;;;27.83;;
39370;SDS011;25099;51.946;4.838;2022-08-19T05:56:04;48.97;;;26.27;;
39370;SDS011;25099;51.946;4.838;2022-08-19T05:58:35;53.28;;;29.08;;
39370;SDS011;25099;51.946;4.838;2022-08-19T06:01:02;61.75;;;29.85;;
39370;SDS011;25099;51.946;4.838;2022-08-19T06:03:34;59.33;;;30.40;;
39370;SDS011;25099;51.946;4.838;2022-08-19T06:06:01;65.47;;;31.05;;
39370;SDS011;25099;51.946;4.838;2022-08-19T06:08:27;64.50;;;33.60;;
39370;SDS011;25099;51.946;4.838;2022-08-19T06:10:53;72.60;;;33.88;;
39370;SDS011;25099;51.946;4.838;2022-08-19T06:13:19;71.40;;;36.42;;
39370;SDS011;25099;51.946;4.838;2022-08-19T06:15:45;75.15;;;36.72;;
39370;SDS011;25099;51.946;4.838;2022-08-19T06:18:12;74.07;;;37.65;;
39370;SDS011;25099;51.946;4.838;2022-08-19T06:20:38;77.68;;;36.72;;
39370;SDS011;25099;51.946;4.838;2022-08-19T06:23:04;77.20;;;40.53;;
39370;SDS011;25099;51.946;4.838;2022-08-19T06:25:30;76.97;;;38.85;;
39370;SDS011;25099;51.946;4.838;2022-08-19T06:27:56;66.35;;;36.28;;
39370;SDS011;25099;51.946;4.838;2022-08-19T06:30:22;61.47;;;33.78;;
39370;SDS011;25099;51.946;4.838;2022-08-19T06:32:48;62.03;;;34.60;;
39370;SDS011;25099;51.946;4.838;2022-08-19T06:35:13;61.38;;;34.60;;
39370;SDS011;25099;51.946;4.838;2022-08-19T06:37:39;62.20;;;34.25;;
39370;SDS011;25099;51.946;4.838;2022-08-19T06:40:05;55.13;;;33.40;;
39370;SDS011;25099;51.946;4.838;2022-08-19T06:42:33;55.67;;;30.55;;
39370;SDS011;25099;51.946;4.838;2022-08-19T06:45:00;58.00;;;32.17;;
39370;SDS011;25099;51.946;4.838;2022-08-19T06:47:29;51.72;;;32.97;;
39370;SDS011;25099;51.946;4.838;2022-08-19T06:49:57;56.47;;;32.47;;
39370;SDS011;25099;51.946;4.838;2022-08-19T06:52:31;49.75;;;30.30;;
39370;SDS011;25099;51.946;4.838;2022-08-19T06:54:58;46.42;;;29.15;;
39370;SDS011;25099;51.946;4.838;2022-08-19T06:57:24;40.95;;;27.45;;
39370;SDS011;25099;51.946;4.838;2022-08-19T06:59:51;45.45;;;28.38;;
39370;SDS011;25099;51.946;4.838;2022-08-19T07:02:17;49.00;;;28.80;;
39370;SDS011;25099;51.946;4.838;2022-08-19T07:04:43;42.53;;;27.35;;
39370;SDS011;25099;51.946;4.838;2022-08-19T07:07:10;46.38;;;26.92;;
39370;SDS011;25099;51.946;4.838;2022-08-19T07:09:39;43.60;;;27.15;;
39370;SDS011;25099;51.946;4.838;2022-08-19T07:12:07;46.65;;;28.45;;
39370;SDS011;25099;51.946;4.838;2022-08-19T07:14:35;47.80;;;27.70;;
39370;SDS011;25099;51.946;4.838;2022-08-19T07:17:03;46.38;;;26.73;;
39370;SDS011;25099;51.946;4.838;2022-08-19T07:19:31;40.40;;;26.05;;
39370;SDS011;25099;51.946;4.838;2022-08-19T07:21:57;44.10;;;29.48;;
39370;SDS011;25099;51.946;4.838;2022-08-19T07:24:25;55.63;;;27.92;;
39370;SDS011;25099;51.946;4.838;2022-08-19T07:26:53;50.05;;;29.27;;
39370;SDS011;25099;51.946;4.838;2022-08-19T07:29:20;47.17;;;28.60;;
39370;SDS011;25099;51.946;4.838;2022-08-19T07:31:48;49.50;;;27.75;;
39370;SDS011;25099;51.946;4.838;2022-08-19T07:34:15;44.95;;;27.60;;
39370;SDS011;25099;51.946;4.838;2022-08-19T07:36:41;43.22;;;26.90;;
39370;SDS011;25099;51.946;4.838;2022-08-19T07:39:12;45.17;;;26.25;;
39370;SDS011;25099;51.946;4.838;2022-08-19T07:41:46;56.05;;;28.77;;
39370;SDS011;25099;51.946;4.838;2022-08-19T07:44:13;41.30;;;26.90;;
39370;SDS011;25099;51.946;4.838;2022-08-19T07:46:41;43.67;;;27.67;;
39370;SDS011;25099;51.946;4.838;2022-08-19T07:49:09;40.90;;;25.73;;
39370;SDS011;25099;51.946;4.838;2022-08-19T07:51:44;43.97;;;26.02;;
39370;SDS011;25099;51.946;4.838;2022-08-19T07:54:19;45.83;;;26.50;;
39370;SDS011;25099;51.946;4.838;2022-08-19T07:56:46;41.28;;;28.10;;
39370;SDS011;25099;51.946;4.838;2022-08-19T07:59:11;42.13;;;26.30;;
39370;SDS011;25099;51.946;4.838;2022-08-19T08:01:37;45.83;;;27.13;;
39370;SDS011;25099;51.946;4.838;2022-08-19T08:04:05;36.42;;;24.80;;
39370;SDS011;25099;51.946;4.838;2022-08-19T08:06:51;42.50;;;26.77;;
39370;SDS011;25099;51.946;4.838;2022-08-19T08:09:38;38.42;;;26.55;;
39370;SDS011;25099;51.946;4.838;2022-08-19T08:12:07;40.15;;;27.15;;
39370;SDS011;25099;51.946;4.838;2022-08-19T08:14:40;44.50;;;28.38;;
39370;SDS011;25099;51.946;4.838;2022-08-19T08:17:07;39.30;;;23.85;;
39370;SDS011;25099;51.946;4.838;2022-08-19T08:19:33;36.33;;;23.23;;
39370;SDS011;25099;51.946;4.838;2022-08-19T08:21:59;37.20;;;25.05;;
39370;SDS011;25099;51.946;4.838;2022-08-19T08:24:27;39.50;;;23.73;;
39370;SDS011;25099;51.946;4.838;2022-08-19T08:26:55;36.53;;;22.67;;
39370;SDS011;25099;51.946;4.838;2022-08-19T08:29:24;30.30;;;22.40;;
39370;SDS011;25099;51.946;4.838;2022-08-19T08:31:50;30.88;;;21.05;;
39370;SDS011;25099;51.946;4.838;2022-08-19T08:34:16;29.08;;;20.80;;
39370;SDS011;25099;51.946;4.838;2022-08-19T08:36:43;35.47;;;20.13;;
39370;SDS011;25099;51.946;4.838;2022-08-19T08:39:11;30.90;;;20.63;;
39370;SDS011;25099;51.946;4.838;2022-08-19T08:41:58;31.58;;;19.92;;
39370;SDS011;25099;51.946;4.838;2022-08-19T08:47:22;36.60;;;20.20;;
39370;SDS011;25099;51.946;4.838;2022-08-19T08:49:54;36.63;;;21.15;;
39370;SDS011;25099;51.946;4.838;2022-08-19T08:52:26;23.67;;;18.95;;
39370;SDS011;25099;51.946;4.838;2022-08-19T08:54:57;27.80;;;20.95;;
39370;SDS011;25099;51.946;4.838;2022-08-19T08:57:35;30.10;;;22.13;;
39370;SDS011;25099;51.946;4.838;2022-08-19T09:02:51;40.53;;;23.25;;
39370;SDS011;25099;51.946;4.838;2022-08-19T09:05:18;41.45;;;23.52;;
39370;SDS011;25099;51.946;4.838;2022-08-19T09:10:22;29.67;;;21.35;;
39370;SDS011;25099;51.946;4.838;2022-08-19T09:15:44;31.13;;;21.67;;
39370;SDS011;25099;51.946;4.838;2022-08-19T09:18:14;28.38;;;21.35;;
39370;SDS011;25099;51.946;4.838;2022-08-19T09:20:41;31.15;;;21.25;;
39370;SDS011;25099;51.946;4.838;2022-08-19T09:23:07;27.92;;;19.25;;
39370;SDS011;25099;51.946;4.838;2022-08-19T09:25:34;27.20;;;18.98;;
39370;SDS011;25099;51.946;4.838;2022-08-19T09:28:00;25.52;;;19.02;;
39370;SDS011;25099;51.946;4.838;2022-08-19T09:30:33;24.60;;;19.38;;
39370;SDS011;25099;51.946;4.838;2022-08-19T09:33:06;23.05;;;19.90;;
39370;SDS011;25099;51.946;4.838;2022-08-19T09:35:32;26.98;;;19.73;;
39370;SDS011;25099;51.946;4.838;2022-08-19T09:37:59;30.70;;;20.33;;
39370;SDS011;25099;51.946;4.838;2022-08-19T09:40:28;24.02;;;21.52;;
39370;SDS011;25099;51.946;4.838;2022-08-19T09:42:55;29.15;;;21.90;;
39370;SDS011;25099;51.946;4.838;2022-08-19T09:45:22;25.92;;;19.35;;
39370;SDS011;25099;51.946;4.838;2022-08-19T09:47:51;21.85;;;19.38;;
39370;SDS011;25099;51.946;4.838;2022-08-19T09:50:18;28.05;;;19.90;;
39370;SDS011;25099;51.946;4.838;2022-08-19T09:52:44;33.25;;;20.98;;
39370;SDS011;25099;51.946;4.838;2022-08-19T09:55:11;24.63;;;17.85;;
39370;SDS011;25099;51.946;4.838;2022-08-19T09:57:37;24.30;;;17.55;;
39370;SDS011;25099;51.946;4.838;2022-08-19T10:00:05;18.83;;;16.80;;
39370;SDS011;25099;51.946;4.838;2022-08-19T10:02:32;16.80;;;15.02;;
39370;SDS011;25099;51.946;4.838;2022-08-19T10:04:58;15.43;;;12.65;;
39370;SDS011;25099;51.946;4.838;2022-08-19T10:07:44;21.27;;;14.85;;
39370;SDS011;25099;51.946;4.838;2022-08-19T10:10:10;15.73;;;13.95;;
39370;SDS011;25099;51.946;4.838;2022-08-19T10:12:36;19.55;;;16.13;;
39370;SDS011;25099;51.946;4.838;2022-08-19T10:15:02;18.17;;;14.32;;
39370;SDS011;25099;51.946;4.838;2022-08-19T10:17:29;26.75;;;18.27;;
39370;SDS011;25099;51.946;4.838;2022-08-19T10:19:54;22.90;;;14.70;;
39370;SDS011;25099;51.946;4.838;2022-08-19T10:22:20;15.48;;;12.38;;
39370;SDS011;25099;51.946;4.838;2022-08-19T10:24:46;18.65;;;12.52;;
39370;SDS011;25099;51.946;4.838;2022-08-19T10:27:11;14.43;;;12.05;;
39370;SDS011;25099;51.946;4.838;2022-08-19T10:29:39;21.33;;;12.82;;
39370;SDS011;25099;51.946;4.838;2022-08-19T10:32:06;18.33;;;10.88;;
39370;SDS011;25099;51.946;4.838;2022-08-19T10:34:34;11.20;;;7.80;;
39370;SDS011;25099;51.946;4.838;2022-08-19T10:39:34;11.40;;;7.65;;
39370;SDS011;25099;51.946;4.838;2022-08-19T10:42:04;10.85;;;7.93;;
39370;SDS011;25099;51.946;4.838;2022-08-19T10:46:56;16.38;;;8.73;;
39370;SDS011;25099;51.946;4.838;2022-08-19T10:49:23;14.27;;;10.20;;
39370;SDS011;25099;51.946;4.838;2022-08-19T10:51:49;12.02;;;8.65;;
39370;SDS011;25099;51.946;4.838;2022-08-19T10:54:33;11.48;;;9.35;;
39370;SDS011;25099;51.946;4.838;2022-08-19T10:57:18;13.73;;;8.10;;
39370;SDS011;25099;51.946;4.838;2022-08-19T10:59:43;9.35;;;7.03;;
39370;SDS011;25099;51.946;4.838;2022-08-19T11:02:09;10.70;;;7.05;;
39370;SDS011;25099;51.946;4.838;2022-08-19T11:04:37;9.55;;;6.78;;
39370;SDS011;25099;51.946;4.838;2022-08-19T11:07:03;11.15;;;6.53;;
39370;SDS011;25099;51.946;4.838;2022-08-19T11:09:29;6.63;;;6.03;;
39370;SDS011;25099;51.946;4.838;2022-08-19T11:11:56;6.65;;;5.63;;
39370;SDS011;25099;51.946;4.838;2022-08-19T11:14:22;6.82;;;5.72;;
39370;SDS011;25099;51.946;4.838;2022-08-19T11:16:51;6.45;;;5.32;;
39370;SDS011;25099;51.946;4.838;2022-08-19T11:19:20;7.40;;;4.85;;
39370;SDS011;25099;51.946;4.838;2022-08-19T11:21:48;5.28;;;4.78;;
39370;SDS011;25099;51.946;4.838;2022-08-19T11:24:16;7.72;;;4.50;;
39370;SDS011;25099;51.946;4.838;2022-08-19T11:26:46;8.85;;;4.47;;
39370;SDS011;25099;51.946;4.838;2022-08-19T11:29:17;7.28;;;4.53;;
39370;SDS011;25099;51.946;4.838;2022-08-19T11:31:46;9.25;;;5.28;;
39370;SDS011;25099;51.946;4.838;2022-08-19T11:34:15;8.45;;;5.35;;
39370;SDS011;25099;51.946;4.838;2022-08-19T11:36:43;7.38;;;6.25;;
39370;SDS011;25099;51.946;4.838;2022-08-19T11:39:11;6.35;;;4.82;;
39370;SDS011;25099;51.946;4.838;2022-08-19T11:41:38;10.20;;;8.15;;
39370;SDS011;25099;51.946;4.838;2022-08-19T11:44:04;13.15;;;8.65;;
39370;SDS011;25099;51.946;4.838;2022-08-19T11:46:31;9.48;;;8.48;;
39370;SDS011;25099;51.946;4.838;2022-08-19T11:48:57;9.05;;;8.02;;
39370;SDS011;25099;51.946;4.838;2022-08-19T11:51:25;7.18;;;6.45;;
39370;SDS011;25099;51.946;4.838;2022-08-19T11:53:52;9.02;;;7.10;;
39370;SDS011;25099;51.946;4.838;2022-08-19T11:56:19;8.98;;;6.15;;
39370;SDS011;25099;51.946;4.838;2022-08-19T11:58:45;6.43;;;5.80;;
39370;SDS011;25099;51.946;4.838;2022-08-19T12:01:12;10.32;;;5.70;;
39370;SDS011;25099;51.946;4.838;2022-08-19T12:03:41;5.05;;;4.18;;
39370;SDS011;25099;51.946;4.838;2022-08-19T12:06:08;3.75;;;2.67;;
39370;SDS011;25099;51.946;4.838;2022-08-19T12:08:37;5.03;;;3.63;;
39370;SDS011;25099;51.946;4.838;2022-08-19T12:11:03;3.97;;;3.60;;
39370;SDS011;25099;51.946;4.838;2022-08-19T12:13:32;3.60;;;3.25;;
39370;SDS011;25099;51.946;4.838;2022-08-19T12:15:58;5.43;;;3.42;;
39370;SDS011;25099;51.946;4.838;2022-08-19T12:18:24;4.63;;;2.88;;
39370;SDS011;25099;51.946;4.838;2022-08-19T12:20:51;7.05;;;5.40;;
39370;SDS011;25099;51.946;4.838;2022-08-19T12:23:19;7.30;;;6.60;;
39370;SDS011;25099;51.946;4.838;2022-08-19T12:25:47;8.10;;;6.68;;
39370;SDS011;25099;51.946;4.838;2022-08-19T12:28:17;8.43;;;7.20;;
39370;SDS011;25099;51.946;4.838;2022-08-19T12:30:47;8.55;;;7.20;;
39370;SDS011;25099;51.946;4.838;2022-08-19T12:33:15;14.70;;;8.35;;
39370;SDS011;25099;51.946;4.838;2022-08-19T12:35:42;8.00;;;7.28;;
39370;SDS011;25099;51.946;4.838;2022-08-19T12:38:10;9.93;;;8.68;;
39370;SDS011;25099;51.946;4.838;2022-08-19T12:40:37;11.80;;;9.55;;
39370;SDS011;25099;51.946;4.838;2022-08-19T12:43:03;23.00;;;10.73;;
39370;SDS011;25099;51.946;4.838;2022-08-19T12:45:29;8.52;;;5.50;;
39370;SDS011;25099;51.946;4.838;2022-08-19T12:47:55;10.13;;;4.30;;
39370;SDS011;25099;51.946;4.838;2022-08-19T12:50:21;4.68;;;4.18;;
39370;SDS011;25099;51.946;4.838;2022-08-19T12:52:47;5.28;;;4.78;;
39370;SDS011;25099;51.946;4.838;2022-08-19T12:55:13;8.27;;;7.55;;
39370;SDS011;25099;51.946;4.838;2022-08-19T12:57:39;8.07;;;5.72;;
39370;SDS011;25099;51.946;4.838;2022-08-19T13:00:06;5.97;;;5.32;;
39370;SDS011;25099;51.946;4.838;2022-08-19T13:02:38;5.72;;;5.22;;
39370;SDS011;25099;51.946;4.838;2022-08-19T13:05:06;5.93;;;5.30;;
39370;SDS011;25099;51.946;4.838;2022-08-19T13:07:33;6.53;;;5.90;;
39370;SDS011;25099;51.946;4.838;2022-08-19T13:09:59;8.80;;;5.45;;
39370;SDS011;25099;51.946;4.838;2022-08-19T13:12:25;5.25;;;4.85;;
39370;SDS011;25099;51.946;4.838;2022-08-19T13:14:52;6.30;;;5.75;;
39370;SDS011;25099;51.946;4.838;2022-08-19T13:17:19;12.48;;;7.78;;
39370;SDS011;25099;51.946;4.838;2022-08-19T13:19:45;10.63;;;9.52;;
39370;SDS011;25099;51.946;4.838;2022-08-19T13:22:10;14.15;;;11.30;;
39370;SDS011;25099;51.946;4.838;2022-08-19T13:24:37;13.90;;;9.60;;
39370;SDS011;25099;51.946;4.838;2022-08-19T13:27:03;10.20;;;9.20;;
39370;SDS011;25099;51.946;4.838;2022-08-19T13:29:28;14.10;;;10.90;;
39370;SDS011;25099;51.946;4.838;2022-08-19T13:32:13;10.55;;;8.88;;
39370;SDS011;25099;51.946;4.838;2022-08-19T13:34:57;11.60;;;7.30;;
39370;SDS011;25099;51.946;4.838;2022-08-19T13:37:23;7.25;;;6.57;;
39370;SDS011;25099;51.946;4.838;2022-08-19T13:40:08;5.88;;;5.38;;
39370;SDS011;25099;51.946;4.838;2022-08-19T13:42:41;5.55;;;5.07;;
39370;SDS011;25099;51.946;4.838;2022-08-19T13:45:07;5.65;;;5.15;;
39370;SDS011;25099;51.946;4.838;2022-08-19T13:47:34;6.15;;;5.65;;
39370;SDS011;25099;51.946;4.838;2022-08-19T13:50:02;8.25;;;7.45;;
39370;SDS011;25099;51.946;4.838;2022-08-19T13:52:28;8.05;;;7.35;;
39370;SDS011;25099;51.946;4.838;2022-08-19T13:54:54;8.38;;;7.53;;
39370;SDS011;25099;51.946;4.838;2022-08-19T13:57:20;10.70;;;8.27;;
39370;SDS011;25099;51.946;4.838;2022-08-19T13:59:46;10.07;;;9.02;;
39370;SDS011;25099;51.946;4.838;2022-08-19T14:02:11;9.77;;;8.85;;
39370;SDS011;25099;51.946;4.838;2022-08-19T14:04:37;9.02;;;8.18;;
39370;SDS011;25099;51.946;4.838;2022-08-19T14:07:03;10.60;;;8.70;;
39370;SDS011;25099;51.946;4.838;2022-08-19T14:09:29;9.05;;;6.72;;
39370;SDS011;25099;51.946;4.838;2022-08-19T14:11:55;6.18;;;5.55;;
39370;SDS011;25099;51.946;4.838;2022-08-19T14:14:20;6.15;;;5.55;;
39370;SDS011;25099;51.946;4.838;2022-08-19T14:16:46;7.95;;;6.68;;
39370;SDS011;25099;51.946;4.838;2022-08-19T14:19:13;9.40;;;6.15;;
39370;SDS011;25099;51.946;4.838;2022-08-19T14:21:38;8.13;;;7.13;;
39370;SDS011;25099;51.946;4.838;2022-08-19T14:24:06;8.90;;;5.78;;
39370;SDS011;25099;51.946;4.838;2022-08-19T14:26:32;9.35;;;7.82;;
39370;SDS011;25099;51.946;4.838;2022-08-19T14:28:57;7.60;;;6.90;;
39370;SDS011;25099;51.946;4.838;2022-08-19T14:31:23;8.25;;;7.07;;
39370;SDS011;25099;51.946;4.838;2022-08-19T14:33:49;8.38;;;7.57;;
39370;SDS011;25099;51.946;4.838;2022-08-19T14:36:16;9.38;;;7.85;;
39370;SDS011;25099;51.946;4.838;2022-08-19T14:38:42;8.35;;;7.45;;
39370;SDS011;25099;51.946;4.838;2022-08-19T14:41:12;8.40;;;7.60;;
39370;SDS011;25099;51.946;4.838;2022-08-19T14:43:44;9.15;;;7.47;;
39370;SDS011;25099;51.946;4.838;2022-08-19T14:46:12;14.45;;;9.43;;
39370;SDS011;25099;51.946;4.838;2022-08-19T14:48:40;9.52;;;7.75;;
39370;SDS011;25099;51.946;4.838;2022-08-19T14:51:06;11.57;;;8.95;;
39370;SDS011;25099;51.946;4.838;2022-08-19T14:53:32;11.57;;;9.07;;